Time;durP1;ratioP1;P1;durP2;ratioP2;P2;SDS_P1;SDS_P2;PMS_P1;PMS_P2;Temp;Humidity;BMP_temperature;BMP_pressure;BME280_temperature;BME280_humidity;BME280_pressure;Samples;Min_cycle;Max_cycle;Signal;HPM_P1;HPM_P2
2024/01/14 00:01:58;;;;;;;13.98;1.83;;;;;;;;;;5049508;28;20127;-76
2024/01/14 00:04:25;;;;;;;12.68;1.75;;;;;;;;;;5049703;28;20009;-76
2024/01/14 00:06:51;;;;;;;9.68;1.48;;;;;;;;;;5049740;28;20074;-76
2024/01/14 00:09:17;;;;;;;15.00;1.95;;;;;;;;;;5049548;28;20010;-76
2024/01/14 00:11:43;;;;;;;9.77;1.30;;;;;;;;;;5049461;28;20024;-76
2024/01/14 00:14:09;;;;;;;14.93;2.20;;;;;;;;;;5048229;28;20017;-76
2024/01/14 00:16:35;;;;;;;12.32;1.60;;;;;;;;;;5049575;28;20025;-76
2024/01/14 00:19:02;;;;;;;15.93;1.95;;;;;;;;;;5048099;28;20480;-76
2024/01/14 00:21:28;;;;;;;13.25;1.70;;;;;;;;;;5047955;28;20022;-76
2024/01/14 00:23:55;;;;;;;11.82;2.00;;;;;;;;;;5048088;28;20025;-76
2024/01/14 00:26:24;;;;;;;13.75;1.63;;;;;;;;;;5050284;28;20017;-76
2024/01/14 00:28:50;;;;;;;11.55;1.58;;;;;;;;;;5053172;28;20039;-76
2024/01/14 00:31:17;;;;;;;10.25;1.20;;;;;;;;;;5051745;28;20473;-76
2024/01/14 00:33:43;;;;;;;12.95;1.45;;;;;;;;;;5053167;28;20143;-76
2024/01/14 00:36:09;;;;;;;8.85;1.13;;;;;;;;;;5051618;28;20048;-76
2024/01/14 00:38:35;;;;;;;7.68;1.13;;;;;;;;;;5052946;28;20147;-76
2024/01/14 00:41:01;;;;;;;9.75;1.50;;;;;;;;;;5051763;28;20100;-76
2024/01/14 00:43:28;;;;;;;12.77;1.45;;;;;;;;;;5052980;28;20089;-76
2024/01/14 00:45:54;;;;;;;14.45;1.70;;;;;;;;;;5052866;28;20092;-76
2024/01/14 00:48:20;;;;;;;14.50;1.52;;;;;;;;;;5051464;28;20009;-76
2024/01/14 00:50:46;;;;;;;14.75;1.60;;;;;;;;;;5052754;28;20024;-76
2024/01/14 00:53:12;;;;;;;15.10;1.90;;;;;;;;;;5051460;28;20441;-76
2024/01/14 00:55:38;;;;;;;10.82;1.25;;;;;;;;;;5052664;28;20020;-76
2024/01/14 00:58:04;;;;;;;18.90;2.55;;;;;;;;;;5051421;28;20017;-76
2024/01/14 01:00:31;;;;;;;14.13;1.63;;;;;;;;;;5052519;28;20021;-76
2024/01/14 01:02:57;;;;;;;14.02;1.65;;;;;;;;;;5051688;28;20031;-76
2024/01/14 01:05:23;;;;;;;18.42;1.75;;;;;;;;;;5052715;28;20017;-76
2024/01/14 01:07:49;;;;;;;14.60;1.85;;;;;;;;;;5052427;28;20063;-76
2024/01/14 01:10:15;;;;;;;16.23;2.58;;;;;;;;;;5051023;28;20017;-76
2024/01/14 01:12:41;;;;;;;15.13;1.98;;;;;;;;;;5052468;28;20248;-76
2024/01/14 01:15:07;;;;;;;17.50;2.55;;;;;;;;;;5052267;28;20017;-76
2024/01/14 01:17:34;;;;;;;17.02;2.38;;;;;;;;;;5052292;28;20052;-75
2024/01/14 01:20:00;;;;;;;18.38;2.47;;;;;;;;;;5050919;28;20016;-76
2024/01/14 01:22:27;;;;;;;12.80;1.38;;;;;;;;;;5052410;28;20355;-76
2024/01/14 01:24:53;;;;;;;9.35;0.77;;;;;;;;;;5050982;28;20017;-76
2024/01/14 01:27:19;;;;;;;10.35;1.00;;;;;;;;;;5052427;28;20055;-76
2024/01/14 01:29:45;;;;;;;9.10;0.93;;;;;;;;;;5050647;28;20048;-76
2024/01/14 01:32:11;;;;;;;4.88;0.75;;;;;;;;;;5051959;28;20029;-76
2024/01/14 01:34:37;;;;;;;6.68;0.80;;;;;;;;;;5050651;28;20163;-76
2024/01/14 01:37:04;;;;;;;11.13;1.00;;;;;;;;;;5049948;28;20041;-76
2024/01/14 01:39:30;;;;;;;8.55;1.50;;;;;;;;;;5050597;28;20017;-76
2024/01/14 01:41:56;;;;;;;16.92;1.33;;;;;;;;;;5051640;28;20025;-76
2024/01/14 01:44:23;;;;;;;11.05;1.45;;;;;;;;;;5051831;28;20087;-76
2024/01/14 01:46:49;;;;;;;13.43;1.85;;;;;;;;;;5050474;28;20112;-76
2024/01/14 01:49:16;;;;;;;10.38;1.02;;;;;;;;;;5050293;28;20074;-76
2024/01/14 01:51:43;;;;;;;16.38;1.98;;;;;;;;;;5051658;28;20021;-76
2024/01/14 01:54:09;;;;;;;10.02;1.48;;;;;;;;;;5051913;28;20009;-76
2024/01/14 01:56:37;;;;;;;11.95;1.60;;;;;;;;;;5051570;28;20021;-76
2024/01/14 01:59:03;;;;;;;19.02;1.77;;;;;;;;;;5050407;28;20020;-76
2024/01/14 02:01:32;;;;;;;16.65;1.75;;;;;;;;;;5051478;28;20022;-76
2024/01/14 02:03:58;;;;;;;15.23;2.03;;;;;;;;;;5050060;28;20028;-76
2024/01/14 02:06:25;;;;;;;13.55;1.95;;;;;;;;;;5050087;28;20024;-76
2024/01/14 02:08:51;;;;;;;17.27;2.22;;;;;;;;;;5049901;28;20013;-76
2024/01/14 02:11:17;;;;;;;14.73;1.35;;;;;;;;;;5049878;28;20385;-76
2024/01/14 02:13:43;;;;;;;11.35;1.90;;;;;;;;;;5051311;28;20013;-77
2024/01/14 02:16:09;;;;;;;13.20;1.58;;;;;;;;;;5051156;28;20024;-76
2024/01/14 02:18:35;;;;;;;10.07;1.33;;;;;;;;;;5049810;28;20495;-76
2024/01/14 02:21:01;;;;;;;22.75;2.33;;;;;;;;;;5049928;28;20017;-76
2024/01/14 02:23:28;;;;;;;8.90;1.80;;;;;;;;;;5049811;28;20393;-76
2024/01/14 02:25:54;;;;;;;15.85;1.90;;;;;;;;;;5049789;28;20005;-76
2024/01/14 02:28:20;;;;;;;13.25;1.92;;;;;;;;;;5049761;28;20009;-76
2024/01/14 02:30:47;;;;;;;14.05;1.85;;;;;;;;;;5050862;28;20469;-76
2024/01/14 02:33:13;;;;;;;12.73;1.70;;;;;;;;;;5050867;28;20017;-76
2024/01/14 02:35:39;;;;;;;12.60;1.90;;;;;;;;;;5050731;28;20106;-76
2024/01/14 02:38:06;;;;;;;13.32;1.77;;;;;;;;;;5050653;28;20032;-76
2024/01/14 02:40:33;;;;;;;19.33;2.33;;;;;;;;;;5050698;28;20024;-76
2024/01/14 02:42:59;;;;;;;14.20;1.15;;;;;;;;;;5049431;28;20029;-76
2024/01/14 02:45:30;;;;;;;9.15;1.50;;;;;;;;;;5050869;28;20052;-76
2024/01/14 02:47:56;;;;;;;15.15;1.65;;;;;;;;;;5050857;28;20016;-76
2024/01/14 02:50:22;;;;;;;15.73;1.88;;;;;;;;;;5049694;28;20145;-76
2024/01/14 02:52:48;;;;;;;14.45;1.80;;;;;;;;;;5050539;28;20103;-76
2024/01/14 02:55:14;;;;;;;13.82;1.38;;;;;;;;;;5050438;28;20384;-76
2024/01/14 02:57:40;;;;;;;16.20;1.50;;;;;;;;;;5050472;28;20074;-76
2024/01/14 03:00:08;;;;;;;19.73;2.65;;;;;;;;;;5050358;28;20048;-76
2024/01/14 03:02:34;;;;;;;18.23;1.60;;;;;;;;;;5050386;28;20064;-76
2024/01/14 03:05:00;;;;;;;17.27;2.10;;;;;;;;;;5048776;28;20355;-76
2024/01/14 03:07:26;;;;;;;9.77;1.50;;;;;;;;;;5049081;28;20018;-76
2024/01/14 03:09:52;;;;;;;17.70;2.30;;;;;;;;;;5048831;28;20435;-76
2024/01/14 03:12:18;;;;;;;11.70;1.30;;;;;;;;;;5048886;28;20017;-76
2024/01/14 03:14:44;;;;;;;16.88;1.60;;;;;;;;;;5049193;28;20457;-76
2024/01/14 03:17:10;;;;;;;19.20;1.70;;;;;;;;;;5049945;28;20059;-76
2024/01/14 03:19:36;;;;;;;14.32;1.58;;;;;;;;;;5049974;28;20028;-77
2024/01/14 03:22:02;;;;;;;19.33;2.00;;;;;;;;;;5049845;28;20028;-76
2024/01/14 03:24:28;;;;;;;15.35;1.55;;;;;;;;;;5048773;28;20087;-76
2024/01/14 03:26:54;;;;;;;10.07;1.50;;;;;;;;;;5048543;28;20041;-76
2024/01/14 03:29:20;;;;;;;16.45;1.90;;;;;;;;;;5048616;28;20019;-76
2024/01/14 03:31:46;;;;;;;13.10;1.52;;;;;;;;;;5048482;28;20009;-76
2024/01/14 03:34:12;;;;;;;20.88;1.73;;;;;;;;;;5048546;28;20028;-76
2024/01/14 03:36:38;;;;;;;21.60;1.98;;;;;;;;;;5048566;28;20037;-77
2024/01/14 03:39:04;;;;;;;15.57;1.60;;;;;;;;;;5049762;28;20017;-76
2024/01/14 03:41:30;;;;;;;14.93;1.45;;;;;;;;;;5048407;28;20439;-76
2024/01/14 03:43:56;;;;;;;17.98;2.15;;;;;;;;;;5049595;28;20025;-76
2024/01/14 03:46:23;;;;;;;12.57;1.60;;;;;;;;;;5049684;28;20013;-76
2024/01/14 03:48:49;;;;;;;11.40;1.60;;;;;;;;;;5047990;28;20059;-76
2024/01/14 03:51:15;;;;;;;18.23;1.83;;;;;;;;;;5048555;28;20017;-75
2024/01/14 03:53:41;;;;;;;11.55;2.00;;;;;;;;;;5048220;28;20053;-75
2024/01/14 03:56:07;;;;;;;19.45;2.17;;;;;;;;;;5049645;28;20021;-76
2024/01/14 03:58:33;;;;;;;12.15;1.38;;;;;;;;;;5048341;28;20030;-76
2024/01/14 04:00:59;;;;;;;14.45;1.60;;;;;;;;;;5050390;28;20470;-75
2024/01/14 04:03:25;;;;;;;18.77;1.65;;;;;;;;;;5053453;28;20078;-76
2024/01/14 04:05:50;;;;;;;7.45;0.98;;;;;;;;;;5053710;28;20381;-76
2024/01/14 04:08:16;;;;;;;9.07;1.20;;;;;;;;;;5053520;28;20016;-76
2024/01/14 04:10:43;;;;;;;9.88;0.98;;;;;;;;;;5053385;28;20100;-77
2024/01/14 04:13:09;;;;;;;9.00;1.13;;;;;;;;;;5052135;28;20045;-76
2024/01/14 04:15:35;;;;;;;13.65;1.23;;;;;;;;;;5053481;28;20523;-76
2024/01/14 04:18:01;;;;;;;7.55;0.98;;;;;;;;;;5052093;28;20016;-76
2024/01/14 04:20:27;;;;;;;11.93;1.40;;;;;;;;;;5053253;28;20052;-76
2024/01/14 04:22:53;;;;;;;12.52;1.30;;;;;;;;;;5053167;28;20056;-75
2024/01/14 04:25:19;;;;;;;12.93;1.05;;;;;;;;;;5053298;28;20070;-76
2024/01/14 04:27:45;;;;;;;14.80;1.83;;;;;;;;;;5053140;28;20013;-75
2024/01/14 04:30:11;;;;;;;9.35;1.10;;;;;;;;;;5053175;28;20066;-75
2024/01/14 04:32:37;;;;;;;15.32;1.50;;;;;;;;;;5051780;28;20025;-75
2024/01/14 04:35:04;;;;;;;11.55;1.30;;;;;;;;;;5053367;28;20092;-76
2024/01/14 04:37:30;;;;;;;11.07;1.10;;;;;;;;;;5053101;28;20017;-76
2024/01/14 04:39:56;;;;;;;14.50;1.65;;;;;;;;;;5052926;28;20024;-75
2024/01/14 04:42:23;;;;;;;12.57;1.60;;;;;;;;;;5052939;28;20045;-75
2024/01/14 04:44:49;;;;;;;22.17;2.22;;;;;;;;;;5051595;28;20021;-75
2024/01/14 04:47:15;;;;;;;11.00;1.08;;;;;;;;;;5052954;28;20013;-76
2024/01/14 04:49:41;;;;;;;12.55;1.50;;;;;;;;;;5051535;28;20472;-76
2024/01/14 04:52:07;;;;;;;15.18;1.10;;;;;;;;;;5052537;28;20511;-76
2024/01/14 04:54:33;;;;;;;12.82;0.98;;;;;;;;;;5052601;28;20021;-77
2024/01/14 04:56:59;;;;;;;12.90;1.60;;;;;;;;;;5053109;28;20017;-76
2024/01/14 04:59:25;;;;;;;11.73;1.10;;;;;;;;;;5051298;28;20049;-75
2024/01/14 05:01:51;;;;;;;12.30;1.17;;;;;;;;;;5051124;28;20521;-76
2024/01/14 05:04:17;;;;;;;16.92;1.73;;;;;;;;;;5051351;28;20017;-76
2024/01/14 05:06:43;;;;;;;11.45;1.60;;;;;;;;;;5051200;28;20373;-76
2024/01/14 05:09:09;;;;;;;15.68;1.65;;;;;;;;;;5050997;28;20108;-75
2024/01/14 05:11:35;;;;;;;13.27;1.45;;;;;;;;;;5050487;28;20039;-76
2024/01/14 05:14:01;;;;;;;18.83;2.15;;;;;;;;;;5051920;28;20436;-75
2024/01/14 05:16:27;;;;;;;11.13;1.75;;;;;;;;;;5051065;28;20017;-75
2024/01/14 05:18:54;;;;;;;14.90;2.00;;;;;;;;;;5050903;28;20493;-76
2024/01/14 05:21:20;;;;;;;24.50;2.30;;;;;;;;;;5050869;28;20104;-76
2024/01/14 05:23:46;;;;;;;12.07;1.70;;;;;;;;;;5050700;28;20021;-76
2024/01/14 05:26:13;;;;;;;13.45;1.48;;;;;;;;;;5052269;28;20016;-76
2024/01/14 05:28:39;;;;;;;17.73;1.58;;;;;;;;;;5050790;28;20453;-76
2024/01/14 05:31:05;;;;;;;14.55;1.83;;;;;;;;;;5052078;28;20013;-76
2024/01/14 05:33:31;;;;;;;12.77;1.45;;;;;;;;;;5051960;28;20067;-76
2024/01/14 05:35:57;;;;;;;11.55;1.70;;;;;;;;;;5050545;28;20057;-76
2024/01/14 05:38:23;;;;;;;16.05;1.50;;;;;;;;;;5050662;28;20016;-76
2024/01/14 05:40:49;;;;;;;16.63;1.60;;;;;;;;;;5051803;28;20428;-76
2024/01/14 05:43:16;;;;;;;16.55;1.70;;;;;;;;;;5050536;28;20021;-76
2024/01/14 05:45:42;;;;;;;16.23;1.40;;;;;;;;;;5052089;28;20091;-76
2024/01/14 05:48:08;;;;;;;19.48;2.00;;;;;;;;;;5051833;28;20017;-76
2024/01/14 05:50:34;;;;;;;16.10;2.00;;;;;;;;;;5050303;28;20012;-76
2024/01/14 05:53:00;;;;;;;18.45;1.85;;;;;;;;;;5051535;28;20047;-76
2024/01/14 05:55:26;;;;;;;17.67;1.67;;;;;;;;;;5051614;28;20078;-76
2024/01/14 05:57:52;;;;;;;12.63;1.40;;;;;;;;;;5050404;28;20111;-76
2024/01/14 06:00:22;;;;;;;12.00;1.38;;;;;;;;;;5050272;28;20036;-76
2024/01/14 06:02:48;;;;;;;;;;;;;;;;;;5050524;28;20033;-76
2024/01/14 06:05:15;;;;;;;15.82;1.60;;;;;;;;;;5051205;28;20166;-76
2024/01/14 06:07:41;;;;;;;13.73;1.52;;;;;;;;;;5050241;28;20021;-75
2024/01/14 06:10:09;;;;;;;15.23;1.30;;;;;;;;;;5051227;28;20485;-76
2024/01/14 06:12:35;;;;;;;14.40;2.13;;;;;;;;;;5049866;28;20461;-75
2024/01/14 06:15:01;;;;;;;12.40;1.83;;;;;;;;;;5051229;28;20092;-75
2024/01/14 06:17:27;;;;;;;19.00;1.67;;;;;;;;;;5049881;28;20025;-75
2024/01/14 06:19:53;;;;;;;18.05;2.05;;;;;;;;;;5051106;28;20057;-76
2024/01/14 06:22:19;;;;;;;16.48;2.00;;;;;;;;;;5051001;28;20057;-76
2024/01/14 06:24:45;;;;;;;13.68;1.50;;;;;;;;;;5049731;28;20110;-75
2024/01/14 06:27:11;;;;;;;13.18;1.65;;;;;;;;;;5049741;28;20020;-75
2024/01/14 06:29:37;;;;;;;12.18;1.40;;;;;;;;;;5049618;28;20019;-75
2024/01/14 06:32:03;;;;;;;19.05;2.28;;;;;;;;;;5049609;28;20029;-76
2024/01/14 06:34:29;;;;;;;12.55;1.10;;;;;;;;;;5049708;28;20012;-76
2024/01/14 06:36:55;;;;;;;16.17;1.40;;;;;;;;;;5049311;28;20108;-75
2024/01/14 06:39:21;;;;;;;13.63;1.58;;;;;;;;;;5050757;28;20162;-76
2024/01/14 06:41:47;;;;;;;12.35;1.27;;;;;;;;;;5049367;28;20012;-75
2024/01/14 06:44:13;;;;;;;13.88;1.52;;;;;;;;;;5050870;28;20023;-75
2024/01/14 06:46:43;;;;;;;19.17;2.13;;;;;;;;;;5050952;28;20017;-81
2024/01/14 06:49:09;;;;;;;17.02;1.58;;;;;;;;;;5049516;28;20357;-75
2024/01/14 06:51:45;;;;;;;13.68;1.38;;;;;;;;;;5055192;28;20155;-75
2024/01/14 06:54:12;;;;;;;13.85;1.60;;;;;;;;;;5052809;28;20029;-75
2024/01/14 06:56:47;;;;;;;8.55;1.25;;;;;;;;;;5053102;28;20016;-76
2024/01/14 06:59:14;;;;;;;9.93;1.08;;;;;;;;;;5048614;28;20020;-75
2024/01/14 07:01:40;;;;;;;11.80;1.17;;;;;;;;;;5057122;28;20017;-75
2024/01/14 07:04:06;;;;;;;10.48;1.08;;;;;;;;;;5050761;28;20039;-75
2024/01/14 07:06:32;;;;;;;15.25;1.67;;;;;;;;;;5048944;28;20017;-75
2024/01/14 07:08:58;;;;;;;17.58;1.38;;;;;;;;;;5050284;28;20021;-75
2024/01/14 07:11:24;;;;;;;12.82;1.15;;;;;;;;;;5050049;28;20074;-75
2024/01/14 07:13:50;;;;;;;13.90;1.52;;;;;;;;;;5050101;28;20021;-75
2024/01/14 07:16:16;;;;;;;14.40;1.80;;;;;;;;;;5048951;28;20025;-75
2024/01/14 07:18:42;;;;;;;7.38;0.85;;;;;;;;;;5048805;28;20098;-75
2024/01/14 07:21:10;;;;;;;9.43;1.02;;;;;;;;;;5048118;28;20024;-74
2024/01/14 07:23:37;;;;;;;11.23;1.35;;;;;;;;;;5049054;28;20048;-77
2024/01/14 07:26:05;;;;;;;8.35;1.45;;;;;;;;;;5048847;28;20006;-76
2024/01/14 07:28:31;;;;;;;7.72;1.35;;;;;;;;;;5048801;28;20047;-75
2024/01/14 07:30:57;;;;;;;8.43;0.88;;;;;;;;;;5048617;28;20436;-75
2024/01/14 07:33:23;;;;;;;8.93;0.85;;;;;;;;;;5048385;28;20054;-75
2024/01/14 07:35:49;;;;;;;12.20;1.15;;;;;;;;;;5045231;28;20037;-75
2024/01/14 07:38:15;;;;;;;16.38;4.30;;;;;;;;;;5048508;28;20029;-75
2024/01/14 07:40:41;;;;;;;13.68;3.53;;;;;;;;;;5034438;28;20532;-74
2024/01/14 07:43:08;;;;;;;12.68;1.55;;;;;;;;;;5049585;28;20037;-73
2024/01/14 07:45:34;;;;;;;7.60;1.00;;;;;;;;;;5048199;28;20017;-74
2024/01/14 07:48:01;;;;;;;10.95;1.23;;;;;;;;;;5049712;28;20017;-73
2024/01/14 07:50:27;;;;;;;4.70;0.75;;;;;;;;;;5049419;28;20009;-74
2024/01/14 07:52:53;;;;;;;6.20;0.80;;;;;;;;;;5048081;28;20028;-75
2024/01/14 07:55:19;;;;;;;8.55;1.10;;;;;;;;;;5048273;28;20017;-76
2024/01/14 07:57:45;;;;;;;13.38;1.02;;;;;;;;;;5049609;28;20009;-76
2024/01/14 08:00:12;;;;;;;5.35;0.80;;;;;;;;;;5048293;28;20066;-75
2024/01/14 08:02:38;;;;;;;12.43;1.05;;;;;;;;;;5049259;28;20032;-75
2024/01/14 08:05:04;;;;;;;11.00;1.10;;;;;;;;;;5049571;28;20424;-75
2024/01/14 08:07:30;;;;;;;8.88;1.38;;;;;;;;;;5049453;28;20018;-75
2024/01/14 08:09:59;;;;;;;9.35;1.10;;;;;;;;;;5044761;28;20060;-79
2024/01/14 08:12:25;;;;;;;8.25;0.80;;;;;;;;;;5047848;28;20481;-76
2024/01/14 08:14:50;;;;;;;8.93;1.10;;;;;;;;;;5034599;28;20034;-75
2024/01/14 08:17:16;;;;;;;12.27;1.20;;;;;;;;;;5045790;28;20044;-75
2024/01/14 08:19:42;;;;;;;13.85;1.40;;;;;;;;;;5036657;28;20025;-75
2024/01/14 08:22:09;;;;;;;9.60;1.17;;;;;;;;;;5047403;28;20035;-75
2024/01/14 08:24:35;;;;;;;9.63;1.33;;;;;;;;;;5042838;28;20024;-75
2024/01/14 08:27:01;;;;;;;11.77;1.75;;;;;;;;;;5032530;28;20033;-75
2024/01/14 08:29:27;;;;;;;15.32;1.25;;;;;;;;;;5035229;28;20032;-75
2024/01/14 08:31:53;;;;;;;13.27;1.17;;;;;;;;;;5045280;28;20025;-75
2024/01/14 08:34:19;;;;;;;9.60;1.23;;;;;;;;;;5037888;28;20492;-75
2024/01/14 08:36:45;;;;;;;11.77;1.35;;;;;;;;;;5040877;28;20041;-75
2024/01/14 08:39:11;;;;;;;11.95;1.27;;;;;;;;;;5046847;28;20032;-75
2024/01/14 08:41:37;;;;;;;8.95;1.15;;;;;;;;;;5047788;28;20426;-75
2024/01/14 08:44:06;;;;;;;10.68;1.23;;;;;;;;;;5047519;28;20078;-75
2024/01/14 08:46:33;;;;;;;10.90;1.48;;;;;;;;;;5048626;28;20021;-75
2024/01/14 08:48:59;;;;;;;13.93;1.40;;;;;;;;;;5050471;28;20029;-75
2024/01/14 08:51:25;;;;;;;11.82;0.93;;;;;;;;;;5049740;28;20029;-75
2024/01/14 08:53:51;;;;;;;13.20;1.23;;;;;;;;;;5050893;28;20021;-75
2024/01/14 08:56:18;;;;;;;11.98;1.60;;;;;;;;;;5047488;28;20029;-76
2024/01/14 08:58:44;;;;;;;14.85;1.20;;;;;;;;;;5052596;28;20389;-75
2024/01/14 09:01:10;;;;;;;14.13;1.60;;;;;;;;;;5039487;28;20481;-75
2024/01/14 09:03:36;;;;;;;12.27;1.48;;;;;;;;;;5042719;28;20118;-75
2024/01/14 09:06:02;;;;;;;10.35;1.60;;;;;;;;;;5046766;28;20072;-75
2024/01/14 09:08:28;;;;;;;16.85;2.00;;;;;;;;;;5041900;28;20017;-75
2024/01/14 09:10:54;;;;;;;8.85;1.70;;;;;;;;;;5050104;28;20035;-75
2024/01/14 09:13:20;;;;;;;8.63;1.60;;;;;;;;;;5050600;28;20492;-75
2024/01/14 09:15:46;;;;;;;12.27;2.05;;;;;;;;;;5050339;28;20100;-75
2024/01/14 09:18:12;;;;;;;9.45;2.50;;;;;;;;;;5047555;28;20055;-75
2024/01/14 09:20:38;;;;;;;12.90;1.50;;;;;;;;;;5050682;28;20462;-79
2024/01/14 09:23:04;;;;;;;10.20;1.30;;;;;;;;;;5050562;28;20032;-76
2024/01/14 09:25:30;;;;;;;18.25;2.20;;;;;;;;;;5051569;28;20037;-74
2024/01/14 09:27:56;;;;;;;12.25;1.98;;;;;;;;;;5051618;28;20017;-74
2024/01/14 09:30:22;;;;;;;11.30;1.67;;;;;;;;;;5050487;28;20025;-74
2024/01/14 09:32:48;;;;;;;11.38;1.58;;;;;;;;;;5050389;28;20029;-74
2024/01/14 09:35:14;;;;;;;16.20;1.65;;;;;;;;;;5049839;28;20087;-73
2024/01/14 09:37:40;;;;;;;15.80;1.80;;;;;;;;;;5050093;28;20056;-74
2024/01/14 09:40:06;;;;;;;11.43;1.60;;;;;;;;;;5042269;28;20100;-74
2024/01/14 09:42:39;;;;;;;15.40;1.88;;;;;;;;;;5042939;28;20053;-74
2024/01/14 09:45:05;;;;;;;13.35;1.40;;;;;;;;;;5046405;28;20016;-74
2024/01/14 09:47:35;;;;;;;7.47;1.27;;;;;;;;;;5050377;28;20067;-74
2024/01/14 09:50:01;;;;;;;13.60;1.17;;;;;;;;;;5051041;28;20064;-74
2024/01/14 09:52:29;;;;;;;10.50;1.20;;;;;;;;;;5049177;28;20113;-73
2024/01/14 09:54:55;;;;;;;9.15;1.67;;;;;;;;;;5048546;28;20044;-74
2024/01/14 09:57:21;;;;;;;10.32;1.85;;;;;;;;;;5045199;28;20024;-73
2024/01/14 09:59:51;;;;;;;7.90;1.98;;;;;;;;;;5048718;28;20013;-74
2024/01/14 10:02:18;;;;;;;11.50;1.52;;;;;;;;;;5050432;28;20150;-74
2024/01/14 10:04:44;;;;;;;9.40;1.27;;;;;;;;;;5045031;28;20022;-74
2024/01/14 10:07:11;;;;;;;7.28;1.45;;;;;;;;;;5048860;28;20013;-74
2024/01/14 10:09:40;;;;;;;7.30;1.00;;;;;;;;;;5045276;28;20028;-73
2024/01/14 10:12:08;;;;;;;8.98;0.98;;;;;;;;;;5050105;28;20016;-73
2024/01/14 10:14:34;;;;;;;9.13;1.08;;;;;;;;;;5049863;28;20168;-73
2024/01/14 10:17:01;;;;;;;6.85;0.88;;;;;;;;;;5049865;28;20469;-73
2024/01/14 10:19:27;;;;;;;8.30;1.42;;;;;;;;;;5048026;28;20221;-73
2024/01/14 10:21:54;;;;;;;8.35;1.25;;;;;;;;;;5048623;28;20400;-73
2024/01/14 10:24:21;;;;;;;10.15;1.20;;;;;;;;;;5049398;28;20032;-73
2024/01/14 10:26:51;;;;;;;10.02;1.50;;;;;;;;;;5048618;28;20350;-73
2024/01/14 10:29:17;;;;;;;10.93;1.67;;;;;;;;;;5048890;28;20017;-73
2024/01/14 10:31:43;;;;;;;6.82;1.70;;;;;;;;;;5048053;28;20028;-73
2024/01/14 10:34:09;;;;;;;6.13;1.45;;;;;;;;;;5049659;28;20017;-73
2024/01/14 10:36:37;;;;;;;5.97;1.70;;;;;;;;;;5047704;28;20536;-73
2024/01/14 10:39:04;;;;;;;11.73;2.85;;;;;;;;;;5043428;28;20017;-73
2024/01/14 10:41:30;;;;;;;5.68;1.13;;;;;;;;;;5048216;28;20021;-73
2024/01/14 10:43:56;;;;;;;5.32;1.15;;;;;;;;;;5047940;28;20033;-73
2024/01/14 10:46:23;;;;;;;8.30;1.58;;;;;;;;;;5049234;28;20123;-73
2024/01/14 10:49:08;;;;;;;5.80;1.40;;;;;;;;;;5050088;28;20028;-73
2024/01/14 10:51:39;;;;;;;8.05;1.45;;;;;;;;;;5048633;28;20054;-73
2024/01/14 10:54:17;;;;;;;7.18;1.50;;;;;;;;;;5048783;28;20025;-73
2024/01/14 10:56:49;;;;;;;8.38;1.70;;;;;;;;;;5036058;28;20020;-75
2024/01/14 10:59:16;;;;;;;3.28;1.70;;;;;;;;;;5048402;28;20029;-73
2024/01/14 11:01:49;;;;;;;8.55;1.90;;;;;;;;;;5049506;28;20017;-74
2024/01/14 11:04:17;;;;;;;13.05;2.13;;;;;;;;;;5047989;28;20637;-74
2024/01/14 11:06:45;;;;;;;7.25;1.38;;;;;;;;;;5048395;28;20242;-74
2024/01/14 11:09:12;;;;;;;8.02;1.33;;;;;;;;;;5048121;28;20032;-74
2024/01/14 11:11:42;;;;;;;4.60;0.80;;;;;;;;;;5039567;28;20021;-74
2024/01/14 11:14:09;;;;;;;8.05;1.25;;;;;;;;;;5047566;28;20496;-74
2024/01/14 11:16:39;;;;;;;4.38;0.75;;;;;;;;;;5049611;28;20028;-74
2024/01/14 11:19:11;;;;;;;8.03;1.00;;;;;;;;;;5046793;28;20067;-74
2024/01/14 11:21:52;;;;;;;5.45;0.80;;;;;;;;;;5044361;28;20048;-74
2024/01/14 11:24:24;;;;;;;9.25;1.10;;;;;;;;;;5041026;28;20037;-74
2024/01/14 11:26:50;;;;;;;7.18;0.90;;;;;;;;;;5034704;28;20071;-74
2024/01/14 11:29:16;;;;;;;6.88;1.20;;;;;;;;;;5048939;28;20099;-74
2024/01/14 11:32:23;;;;;;;6.35;1.52;;;;;;;;;;5034245;28;20510;-74
2024/01/14 11:34:54;;;;;;;9.98;1.58;;;;;;;;;;4986879;28;20109;-74
2024/01/14 11:37:39;;;;;;;7.50;1.10;;;;;;;;;;4970609;28;20133;-74
2024/01/14 11:40:08;;;;;;;9.43;1.05;;;;;;;;;;5025785;28;20091;-74
2024/01/14 11:42:34;;;;;;;8.25;1.08;;;;;;;;;;5034069;28;20033;-74
2024/01/14 11:45:01;;;;;;;6.57;1.60;;;;;;;;;;5037638;28;20021;-74
2024/01/14 11:47:36;;;;;;;9.73;1.48;;;;;;;;;;5045118;28;20478;-74
2024/01/14 11:50:07;;;;;;;11.55;1.20;;;;;;;;;;5045858;28;20013;-74
2024/01/14 11:52:33;;;;;;;;;;;;;;;;;;5039882;28;20571;-74
2024/01/14 11:54:59;;;;;;;14.55;1.90;;;;;;;;;;5039479;28;20003;-74
2024/01/14 11:57:25;;;;;;;10.27;1.10;;;;;;;;;;5034855;28;20581;-85
2024/01/14 11:59:52;;;;;;;7.53;1.08;;;;;;;;;;5046231;28;20028;-74
2024/01/14 12:02:18;;;;;;;9.07;1.60;;;;;;;;;;5043663;28;20021;-74
2024/01/14 12:04:44;;;;;;;7.13;1.08;;;;;;;;;;5048734;28;20021;-74
2024/01/14 12:07:10;;;;;;;4.38;1.05;;;;;;;;;;5045813;28;20488;-74
2024/01/14 12:09:36;;;;;;;7.70;1.60;;;;;;;;;;5046805;28;20071;-74
2024/01/14 12:12:06;;;;;;;4.90;1.00;;;;;;;;;;5049246;28;20017;-75
2024/01/14 12:14:37;;;;;;;5.38;0.85;;;;;;;;;;5047596;28;20025;-75
2024/01/14 12:17:09;;;;;;;4.65;1.35;;;;;;;;;;5047679;28;20459;-74
2024/01/14 12:19:36;;;;;;;2.97;0.70;;;;;;;;;;5047596;28;20112;-75
2024/01/14 12:22:02;;;;;;;8.55;0.85;;;;;;;;;;5050815;28;20392;-75
2024/01/14 12:24:31;;;;;;;10.27;0.90;;;;;;;;;;5051566;28;20381;-75
2024/01/14 12:26:59;;;;;;;12.20;1.30;;;;;;;;;;5051939;28;20146;-75
2024/01/14 12:29:25;;;;;;;7.65;1.63;;;;;;;;;;5039557;28;20064;-75
2024/01/14 12:31:51;;;;;;;4.75;0.90;;;;;;;;;;5051072;28;20021;-75
2024/01/14 12:34:17;;;;;;;8.15;1.65;;;;;;;;;;5046499;28;20021;-75
2024/01/14 12:36:44;;;;;;;8.68;0.80;;;;;;;;;;5052435;28;20142;-75
2024/01/14 12:39:10;;;;;;;5.03;1.25;;;;;;;;;;5059840;28;20517;-75
2024/01/14 12:41:37;;;;;;;7.32;1.00;;;;;;;;;;5051171;28;20094;-75
2024/01/14 12:44:03;;;;;;;7.13;1.35;;;;;;;;;;5060707;28;20096;-75
2024/01/14 12:46:31;;;;;;;10.15;1.38;;;;;;;;;;5054368;28;20057;-75
2024/01/14 12:49:04;;;;;;;5.30;0.70;;;;;;;;;;5052910;28;20055;-75
2024/01/14 12:51:30;;;;;;;6.35;0.60;;;;;;;;;;5050044;28;20021;-75
2024/01/14 12:53:56;;;;;;;7.63;0.85;;;;;;;;;;5057616;28;20040;-75
2024/01/14 12:56:23;;;;;;;3.70;0.68;;;;;;;;;;5056667;28;20032;-75
2024/01/14 12:58:49;;;;;;;10.88;1.17;;;;;;;;;;5050307;28;20063;-75
2024/01/14 13:01:16;;;;;;;10.25;1.42;;;;;;;;;;5058382;28;20028;-76
2024/01/14 13:03:42;;;;;;;10.20;0.80;;;;;;;;;;5058352;28;20032;-75
2024/01/14 13:06:08;;;;;;;5.90;0.65;;;;;;;;;;5058410;28;20074;-82
2024/01/14 13:08:34;;;;;;;8.93;1.02;;;;;;;;;;5050768;28;20022;-75
2024/01/14 13:11:01;;;;;;;5.72;0.65;;;;;;;;;;5049779;28;20182;-75
2024/01/14 13:13:27;;;;;;;4.80;0.85;;;;;;;;;;5055462;28;20029;-75
2024/01/14 13:15:54;;;;;;;7.78;1.58;;;;;;;;;;5056491;28;20032;-75
2024/01/14 13:18:20;;;;;;;4.57;0.90;;;;;;;;;;5056929;28;20611;-75
2024/01/14 13:20:46;;;;;;;3.47;1.00;;;;;;;;;;5057281;28;20028;-75
2024/01/14 13:23:12;;;;;;;4.43;1.13;;;;;;;;;;5047494;28;20033;-76
2024/01/14 13:25:38;;;;;;;5.60;0.93;;;;;;;;;;5047209;28;20028;-76
2024/01/14 13:28:04;;;;;;;4.90;0.70;;;;;;;;;;5050591;28;20017;-75
2024/01/14 13:30:30;;;;;;;5.80;1.20;;;;;;;;;;5050238;28;20053;-76
2024/01/14 13:32:57;;;;;;;6.07;0.80;;;;;;;;;;5050823;28;20097;-75
2024/01/14 13:35:23;;;;;;;6.68;0.80;;;;;;;;;;5051479;28;20174;-75
2024/01/14 13:37:49;;;;;;;7.60;0.77;;;;;;;;;;5051416;28;20401;-76
2024/01/14 13:40:16;;;;;;;5.45;0.60;;;;;;;;;;5043381;28;20481;-77
2024/01/14 13:42:42;;;;;;;4.88;0.80;;;;;;;;;;5040623;28;20040;-77
2024/01/14 13:45:09;;;;;;;5.95;1.08;;;;;;;;;;5043234;28;20031;-76
2024/01/14 13:47:35;;;;;;;8.40;1.70;;;;;;;;;;5040032;28;20014;-77
2024/01/14 13:50:02;;;;;;;5.18;0.80;;;;;;;;;;5040171;28;20024;-77
2024/01/14 13:52:28;;;;;;;5.32;0.52;;;;;;;;;;5049948;28;20020;-76
2024/01/14 13:54:54;;;;;;;4.97;0.52;;;;;;;;;;5051550;28;20028;-76
2024/01/14 13:57:21;;;;;;;3.80;0.30;;;;;;;;;;5049098;28;20049;-75
2024/01/14 13:59:48;;;;;;;3.92;0.40;;;;;;;;;;5036725;28;20022;-76
2024/01/14 14:02:15;;;;;;;3.75;0.57;;;;;;;;;;5042067;28;20021;-76
2024/01/14 14:04:41;;;;;;;2.20;0.50;;;;;;;;;;5046015;28;20025;-76
2024/01/14 14:07:08;;;;;;;3.03;0.30;;;;;;;;;;5047582;28;20017;-76
2024/01/14 14:09:34;;;;;;;0.98;0.28;;;;;;;;;;5049715;28;20097;-76
2024/01/14 14:12:00;;;;;;;1.15;0.20;;;;;;;;;;5049625;28;20020;-75
2024/01/14 14:14:26;;;;;;;1.83;0.40;;;;;;;;;;5044484;28;20009;-76
2024/01/14 14:16:52;;;;;;;2.55;0.40;;;;;;;;;;5047221;28;20068;-76
2024/01/14 14:19:18;;;;;;;1.23;0.20;;;;;;;;;;5047062;28;20125;-76
2024/01/14 14:21:44;;;;;;;2.67;0.40;;;;;;;;;;5048628;28;20017;-76
2024/01/14 14:24:12;;;;;;;3.13;0.40;;;;;;;;;;5049356;28;20424;-76
2024/01/14 14:26:38;;;;;;;2.00;0.60;;;;;;;;;;5048213;28;20009;-76
2024/01/14 14:29:04;;;;;;;4.45;0.50;;;;;;;;;;5035183;28;20017;-75
2024/01/14 14:31:31;;;;;;;2.20;0.20;;;;;;;;;;5048275;28;20044;-75
2024/01/14 14:33:57;;;;;;;4.50;0.50;;;;;;;;;;5049558;28;20027;-76